Time;durP1;ratioP1;P1;durP2;ratioP2;P2;SDS_P1;SDS_P2;PMS_P1;PMS_P2;Temp;Humidity;BMP_temperature;BMP_pressure;BME280_temperature;BME280_humidity;BME280_pressure;Samples;Min_cycle;Max_cycle;Signal;HPM_P1;HPM_P2
2021/12/03 00:01:05;;;;;;;16.77;9.68;;;;;;;4.81;63.63;99179.11;1707975;82;21086;-60
2021/12/03 00:03:33;;;;;;;16.32;10.25;;;;;;;4.72;63.77;99183.21;1723586;81;21096;-60
2021/12/03 00:06:00;;;;;;;19.37;10.50;;;;;;;4.66;64.04;99184.99;1721936;82;21067;-61
2021/12/03 00:08:27;;;;;;;16.32;10.20;;;;;;;4.61;64.29;99186.63;1730549;81;21098;-61
2021/12/03 00:10:56;;;;;;;17.02;8.95;;;;;;;4.60;64.35;99182.35;1727622;82;21057;-60
2021/12/03 00:13:24;;;;;;;14.33;8.78;;;;;;;4.64;64.15;99182.50;1726107;82;21065;-60
2021/12/03 00:15:52;;;;;;;15.45;8.80;;;;;;;4.70;64.22;99194.71;1722496;82;21073;-61
2021/12/03 00:18:18;;;;;;;17.55;9.18;;;;;;;4.77;64.36;99198.52;1702074;81;21083;-60
2021/12/03 00:20:45;;;;;;;17.60;9.75;;;;;;;4.81;64.12;99205.17;1723614;82;21549;-60
2021/12/03 00:23:11;;;;;;;15.53;9.40;;;;;;;4.82;64.06;99203.76;1705860;80;21102;-61
2021/12/03 00:25:39;;;;;;;15.08;9.60;;;;;;;4.78;63.81;99208.00;1719092;82;21144;-61
2021/12/03 00:28:05;;;;;;;15.05;9.65;;;;;;;4.73;63.88;99214.03;1732570;82;21055;-60
2021/12/03 00:30:33;;;;;;;17.57;10.65;;;;;;;4.69;63.86;99211.28;1732117;82;21097;-60
2021/12/03 00:33:00;;;;;;;20.65;11.75;;;;;;;4.63;63.82;99206.88;1733258;82;21090;-61
2021/12/03 00:35:27;;;;;;;20.27;11.75;;;;;;;4.58;63.93;99209.48;1733162;81;21538;-61
2021/12/03 00:37:54;;;;;;;21.10;13.48;;;;;;;4.53;64.04;99212.91;1736919;82;21163;-61
2021/12/03 00:40:25;;;;;;;26.07;14.65;;;;;;;4.49;64.38;99213.60;1703855;82;21118;-60
2021/12/03 00:42:51;;;;;;;23.98;14.35;;;;;;;4.48;64.51;99211.93;1728646;80;21055;-60
2021/12/03 00:45:18;;;;;;;20.77;13.30;;;;;;;4.49;64.53;99210.14;1730423;80;21512;-60
2021/12/03 00:47:44;;;;;;;23.57;13.83;;;;;;;4.43;64.46;99203.63;1728838;82;21137;-61
2021/12/03 00:50:15;;;;;;;19.50;11.53;;;;;;;4.42;64.67;99196.73;1701795;80;21975;-61
2021/12/03 00:52:41;;;;;;;22.90;14.20;;;;;;;4.49;64.72;99192.77;1732601;82;21062;-60
2021/12/03 00:55:10;;;;;;;20.68;12.00;;;;;;;4.59;64.83;99196.34;1727767;82;21050;-60
2021/12/03 00:57:36;;;;;;;23.92;13.35;;;;;;;4.64;64.67;99190.80;1733419;80;21120;-60
2021/12/03 01:00:11;;;;;;;21.05;12.65;;;;;;;4.69;64.71;99186.52;1738886;80;21004;-60
2021/12/03 01:02:38;;;;;;;23.45;12.70;;;;;;;4.69;64.82;99178.70;1733964;82;21083;-60
2021/12/03 01:05:05;;;;;;;15.98;11.35;;;;;;;4.69;64.80;99177.41;1706404;82;22272;-60
2021/12/03 01:07:32;;;;;;;16.55;11.70;;;;;;;4.72;64.66;99178.48;1706085;82;21065;-60
2021/12/03 01:09:58;;;;;;;21.35;13.38;;;;;;;4.70;64.43;99182.50;1732989;80;22537;-60
2021/12/03 01:12:25;;;;;;;22.27;11.33;;;;;;;4.68;64.41;99194.00;1737613;82;21060;-60
2021/12/03 01:14:51;;;;;;;19.15;12.15;;;;;;;4.62;64.37;99183.09;1734487;82;21835;-60
2021/12/03 01:17:17;;;;;;;22.00;12.00;;;;;;;4.59;64.37;99193.73;1732073;80;21080;-60
2021/12/03 01:19:44;;;;;;;17.77;11.85;;;;;;;4.52;64.32;99186.00;1728248;82;21124;-60
2021/12/03 01:22:10;;;;;;;21.90;11.70;;;;;;;4.45;64.41;99191.31;1739107;82;21570;-61
2021/12/03 01:24:37;;;;;;;20.62;11.63;;;;;;;4.39;64.51;99187.88;1723545;80;21091;-61
2021/12/03 01:27:04;;;;;;;20.65;11.48;;;;;;;4.33;64.55;99182.62;1727297;82;21102;-61
2021/12/03 01:29:32;;;;;;;17.37;10.80;;;;;;;4.31;64.56;99178.01;1741069;80;21002;-60
2021/12/03 01:31:58;;;;;;;19.30;11.00;;;;;;;4.37;64.35;99171.50;1689248;83;21078;-61
2021/12/03 01:34:25;;;;;;;18.30;10.80;;;;;;;4.38;64.30;99167.48;1699921;82;21672;-60
2021/12/03 01:36:51;;;;;;;17.75;11.43;;;;;;;4.42;64.51;99165.03;1740917;80;21096;-61
2021/12/03 01:39:18;;;;;;;18.98;10.70;;;;;;;4.41;64.57;99167.27;1737110;80;21696;-60
2021/12/03 01:41:44;;;;;;;18.32;11.12;;;;;;;4.38;64.57;99160.98;1712484;82;21101;-60
2021/12/03 01:44:11;;;;;;;17.02;11.03;;;;;;;4.34;64.63;99158.70;1733599;82;22326;-60
2021/12/03 01:46:38;;;;;;;19.05;11.88;;;;;;;4.32;65.02;99152.78;1712849;82;21106;-61
2021/12/03 01:49:05;;;;;;;18.37;11.88;;;;;;;4.29;64.81;99160.37;1736661;80;21093;-60
2021/12/03 01:51:32;;;;;;;18.10;10.68;;;;;;;4.25;64.77;99155.86;1740205;80;21951;-60
2021/12/03 01:53:59;;;;;;;18.62;10.90;;;;;;;4.23;64.49;99153.81;1709508;80;21716;-60
2021/12/03 01:56:26;;;;;;;17.02;10.98;;;;;;;4.19;64.33;99154.18;1730388;80;21168;-61
2021/12/03 01:58:52;;;;;;;15.70;10.88;;;;;;;4.13;64.34;99146.33;1708460;80;21128;-60
2021/12/03 02:01:22;;;;;;;19.82;10.85;;;;;;;4.05;64.27;99144.75;1727384;82;21068;-60
2021/12/03 02:03:52;;;;;;;16.87;10.95;;;;;;;3.97;64.27;99144.47;1738643;80;21160;-60
2021/12/03 02:06:19;;;;;;;16.10;10.60;;;;;;;3.86;64.39;99138.27;1707743;82;21063;-60
2021/12/03 02:08:45;;;;;;;15.53;11.08;;;;;;;3.78;64.71;99137.98;1704220;82;21805;-60
2021/12/03 02:11:13;;;;;;;16.37;10.25;;;;;;;3.79;65.01;99153.98;1734792;82;21088;-60
2021/12/03 02:13:39;;;;;;;16.00;9.85;;;;;;;3.89;65.41;99147.64;1708832;82;21082;-61
2021/12/03 02:16:06;;;;;;;14.63;8.88;;;;;;;4.01;65.38;99155.04;1696876;83;21160;-60
2021/12/03 02:18:32;;;;;;;20.00;11.68;;;;;;;4.12;65.71;99151.19;1709716;82;21185;-60
2021/12/03 02:21:00;;;;;;;16.25;10.18;;;;;;;4.24;65.79;99142.47;1738889;80;21055;-60
2021/12/03 02:23:28;;;;;;;15.20;10.43;;;;;;;4.28;65.51;99137.38;1703506;82;21129;-60
2021/12/03 02:25:55;;;;;;;14.70;9.80;;;;;;;4.28;65.49;99136.56;1707813;82;21040;-60
2021/12/03 02:28:24;;;;;;;15.30;10.15;;;;;;;4.25;65.40;99151.95;1739129;80;21829;-60
2021/12/03 02:30:51;;;;;;;16.85;10.68;;;;;;;4.23;65.27;99156.42;1687065;82;21052;-60
2021/12/03 02:33:17;;;;;;;15.30;9.80;;;;;;;4.23;65.07;99162.11;1726409;81;21114;-60
2021/12/03 02:35:44;;;;;;;17.57;10.10;;;;;;;4.17;65.06;99162.55;1703916;82;21110;-60
2021/12/03 02:38:14;;;;;;;15.48;9.83;;;;;;;4.09;65.01;99163.13;1723922;82;21101;-60
2021/12/03 02:40:40;;;;;;;17.12;10.38;;;;;;;4.00;65.17;99165.08;1720593;82;21885;-59
2021/12/03 02:43:07;;;;;;;20.00;10.63;;;;;;;3.92;65.30;99169.55;1723756;82;21102;-59
2021/12/03 02:45:33;;;;;;;15.72;10.10;;;;;;;3.81;65.27;99153.39;1726918;80;22221;-59
2021/12/03 02:48:00;;;;;;;14.63;9.35;;;;;;;3.78;65.27;99154.08;1727262;82;21141;-60
2021/12/03 02:50:27;;;;;;;17.45;10.60;;;;;;;3.81;65.09;99151.27;1726705;80;21103;-60
2021/12/03 02:52:53;;;;;;;15.60;9.98;;;;;;;3.81;64.98;99142.16;1727574;81;21178;-60
2021/12/03 02:55:21;;;;;;;20.15;11.18;;;;;;;3.84;65.15;99128.45;1730385;80;21071;-60
2021/12/03 02:57:47;;;;;;;16.90;11.08;;;;;;;3.89;65.16;99131.55;1728675;81;21123;-60
2021/12/03 03:00:17;;;;;;;18.57;11.20;;;;;;;3.87;65.07;99138.65;1728247;80;21058;-60
2021/12/03 03:02:44;;;;;;;19.25;11.33;;;;;;;3.84;65.10;99134.14;1730542;82;21110;-60
2021/12/03 03:05:11;;;;;;;22.85;11.65;;;;;;;3.76;64.94;99132.08;1723802;80;21891;-60
2021/12/03 03:07:38;;;;;;;19.57;12.55;;;;;;;3.71;64.79;99125.07;1700652;82;21070;-60
2021/12/03 03:10:08;;;;;;;18.80;12.60;;;;;;;3.64;64.66;99129.06;1727307;82;21114;-61
2021/12/03 03:12:38;;;;;;;26.42;15.20;;;;;;;3.57;64.72;99122.16;1726665;82;21019;-60
2021/12/03 03:15:07;;;;;;;24.37;15.48;;;;;;;3.56;65.05;99122.27;1725545;81;21040;-60
2021/12/03 03:17:33;;;;;;;24.25;15.08;;;;;;;3.57;65.19;99112.23;1724391;82;21155;-60
2021/12/03 03:20:01;;;;;;;22.73;15.32;;;;;;;3.56;65.21;99097.56;1728607;80;21020;-60
2021/12/03 03:22:28;;;;;;;23.52;14.23;;;;;;;3.50;65.28;99086.66;1726625;82;21582;-60
2021/12/03 03:24:59;;;;;;;22.75;13.60;;;;;;;3.43;65.46;99080.69;1703747;82;21121;-60
2021/12/03 03:27:27;;;;;;;20.50;11.38;;;;;;;3.38;65.62;99078.44;1725480;82;21098;-60
2021/12/03 03:29:54;;;;;;;18.85;12.10;;;;;;;3.44;65.80;99071.48;1723701;81;21335;-60
2021/12/03 03:32:21;;;;;;;18.10;10.85;;;;;;;3.53;66.24;99054.38;1732671;82;21082;-59
2021/12/03 03:34:47;;;;;;;20.10;12.00;;;;;;;3.63;66.25;99051.95;1726179;80;21066;-62
2021/12/03 03:37:15;;;;;;;19.15;11.97;;;;;;;3.62;66.33;99040.72;1739308;80;21135;-62
2021/12/03 03:39:43;;;;;;;20.05;12.28;;;;;;;3.63;66.79;99033.74;1736431;80;21090;-62
2021/12/03 03:42:10;;;;;;;19.23;11.78;;;;;;;3.65;66.96;99040.98;1733489;82;21959;-62
2021/12/03 03:56:09;;;;;;;17.48;12.30;;;;;;;5.44;63.75;99029.48;1790400;78;22788;-61
2021/12/03 03:58:41;;;;;;;18.45;12.18;;;;;;;5.63;62.97;99036.67;1753545;80;21030;-60
2021/12/03 04:01:09;;;;;;;16.93;11.83;;;;;;;5.59;62.65;99034.77;1752249;79;21076;-63
2021/12/03 04:03:35;;;;;;;21.37;12.55;;;;;;;5.49;62.50;99040.37;1741552;80;21537;-60
2021/12/03 04:06:02;;;;;;;16.95;11.53;;;;;;;5.38;62.46;99040.42;1728928;81;21085;-60
2021/12/03 04:08:29;;;;;;;17.73;11.10;;;;;;;5.26;62.35;99044.84;1677013;83;21168;-59
2021/12/03 04:10:58;;;;;;;16.48;11.50;;;;;;;5.11;62.34;99045.58;1727518;81;21571;-59
2021/12/03 04:13:26;;;;;;;14.78;10.05;;;;;;;4.93;62.42;99036.11;1725578;80;21863;-61
2021/12/03 04:15:53;;;;;;;18.25;10.63;;;;;;;4.76;62.65;99040.03;1732039;81;21011;-62
2021/12/03 04:18:19;;;;;;;17.70;10.88;;;;;;;4.60;62.84;99045.57;1733865;81;21062;-61
2021/12/03 04:20:47;;;;;;;13.90;9.10;;;;;;;4.46;63.09;99040.60;1726470;81;21066;-61
2021/12/03 04:23:18;;;;;;;16.57;10.95;;;;;;;4.34;63.34;99039.77;1731025;81;21094;-62
2021/12/03 04:25:42;;;;;;;15.40;10.35;;;;;;;4.20;63.58;99043.41;1731034;81;22168;-62
2021/12/03 04:28:08;;;;;;;14.73;10.48;;;;;;;4.07;63.89;99040.89;1731057;81;21117;-62
2021/12/03 04:30:35;;;;;;;14.28;10.35;;;;;;;4.03;64.09;99041.22;1693367;81;21505;-62
2021/12/03 04:33:02;;;;;;;14.33;10.15;;;;;;;4.03;64.04;99042.04;1732778;81;21081;-63
2021/12/03 04:35:29;;;;;;;15.38;9.45;;;;;;;4.05;64.35;99045.38;1732625;81;21082;-63
2021/12/03 04:37:56;;;;;;;14.63;9.55;;;;;;;4.08;64.39;99043.86;1725615;81;21888;-63
2021/12/03 04:40:23;;;;;;;15.48;9.63;;;;;;;4.11;64.49;99039.36;1725390;81;21524;-63
2021/12/03 04:42:49;;;;;;;16.30;9.90;;;;;;;4.08;64.52;99036.05;1726181;81;21082;-66
2021/12/03 04:45:20;;;;;;;21.27;11.68;;;;;;;4.06;64.54;99039.70;1751365;80;22321;-64
2021/12/03 04:47:48;;;;;;;15.83;9.95;;;;;;;4.04;64.56;99037.69;1747985;80;21555;-64
2021/12/03 04:50:16;;;;;;;13.85;10.28;;;;;;;4.03;64.71;99034.71;1742682;80;21124;-60
2021/12/03 04:52:42;;;;;;;15.32;9.43;;;;;;;4.04;64.79;99045.02;1743376;80;21081;-61
2021/12/03 04:55:10;;;;;;;12.95;9.30;;;;;;;4.05;64.93;99035.42;1754644;79;21101;-61
2021/12/03 04:57:36;;;;;;;16.17;9.88;;;;;;;4.04;64.88;99037.69;1760668;79;21525;-61
2021/12/03 05:00:11;;;;;;;18.90;10.60;;;;;;;3.99;64.87;99034.59;1762396;79;21125;-59
2021/12/03 05:02:38;;;;;;;16.40;10.25;;;;;;;3.91;64.97;99026.86;1724893;81;21110;-61
2021/12/03 05:05:06;;;;;;;17.45;10.75;;;;;;;3.86;65.02;99024.25;1724662;81;21133;-61
2021/12/03 05:10:07;;;;;;;15.28;10.45;;;;;;;3.91;64.96;99017.75;1721206;81;21090;-61
2021/12/03 05:12:33;;;;;;;17.10;10.70;;;;;;;3.88;65.09;99012.80;1729636;81;21089;-61
2021/12/03 05:15:01;;;;;;;16.52;10.82;;;;;;;3.84;65.21;99010.05;1726284;81;21392;-61
2021/12/03 05:17:28;;;;;;;19.42;11.60;;;;;;;3.80;65.16;99003.43;1702594;82;21088;-61
2021/12/03 05:19:54;;;;;;;16.07;10.82;;;;;;;3.77;65.08;99005.44;1725113;81;21051;-60
2021/12/03 05:22:20;;;;;;;14.83;10.45;;;;;;;3.73;65.03;99002.20;1733411;81;21046;-60
2021/12/03 05:24:47;;;;;;;18.98;12.15;;;;;;;3.69;65.13;98987.78;1724861;81;21121;-61
2021/12/03 05:27:15;;;;;;;15.70;10.00;;;;;;;3.65;65.10;98990.27;1698431;81;21461;-60
2021/12/03 05:29:43;;;;;;;16.27;10.45;;;;;;;3.59;65.18;98982.41;1727375;81;21530;-60
2021/12/03 05:32:10;;;;;;;19.70;10.88;;;;;;;3.53;65.18;98977.20;1725314;81;22120;-60
2021/12/03 05:34:38;;;;;;;17.15;11.08;;;;;;;3.52;65.48;98959.93;1726255;81;21080;-60
2021/12/03 05:37:06;;;;;;;16.85;10.70;;;;;;;3.52;65.51;98948.70;1676606;82;21171;-60
2021/12/03 05:39:34;;;;;;;18.05;10.58;;;;;;;3.57;65.75;98944.47;1699765;82;21074;-61
2021/12/03 05:42:01;;;;;;;14.33;9.28;;;;;;;3.63;66.15;98952.66;1700330;82;21750;-61
2021/12/03 05:44:30;;;;;;;19.00;11.28;;;;;;;3.70;66.51;98956.45;1705267;82;21125;-61
2021/12/03 05:46:58;;;;;;;17.45;10.53;;;;;;;3.78;66.93;98946.75;1700634;82;21082;-61
2021/12/03 05:49:25;;;;;;;15.38;10.25;;;;;;;3.84;67.10;98951.50;1695260;83;21551;-61
2021/12/03 05:51:52;;;;;;;14.80;9.45;;;;;;;3.87;67.25;98957.78;1700854;82;21129;-61
2021/12/03 05:54:19;;;;;;;14.25;10.25;;;;;;;3.88;67.31;98956.86;1735572;80;21400;-60
2021/12/03 05:56:47;;;;;;;15.50;9.63;;;;;;;3.87;67.39;98960.88;1703773;83;21013;-60
2021/12/03 05:59:14;;;;;;;17.15;10.72;;;;;;;3.88;67.61;98966.41;1708650;82;21535;-60
2021/12/03 06:01:40;;;;;;;13.53;9.98;;;;;;;3.94;67.73;98959.45;1710937;82;21120;-61
2021/12/03 06:04:07;;;;;;;15.83;8.93;;;;;;;3.99;67.64;98965.63;1702582;83;21106;-60
2021/12/03 06:06:34;;;;;;;13.95;8.98;;;;;;;4.05;67.56;98963.84;1715301;82;21446;-61
2021/12/03 06:09:04;;;;;;;16.93;9.35;;;;;;;4.20;67.35;98961.40;1710882;82;21075;-60
2021/12/03 06:11:30;;;;;;;15.78;9.45;;;;;;;4.34;67.13;98949.92;1712094;82;21576;-67
2021/12/03 06:13:57;;;;;;;15.68;8.53;;;;;;;4.43;66.78;98943.98;1718473;81;21053;-61
2021/12/03 06:16:24;;;;;;;15.20;7.87;;;;;;;4.48;66.58;98957.95;1721288;81;21265;-60
2021/12/03 06:18:52;;;;;;;12.35;8.58;;;;;;;4.49;66.93;98958.77;1717433;81;21469;-62
2021/12/03 06:21:18;;;;;;;15.80;8.75;;;;;;;4.50;66.86;98967.78;1719472;81;21077;-64
2021/12/03 06:23:45;;;;;;;16.70;9.75;;;;;;;4.51;67.15;98985.56;1743900;82;21101;-63
2021/12/03 06:26:11;;;;;;;15.53;9.68;;;;;;;4.54;67.02;98984.84;1734637;81;21123;-63
2021/12/03 06:28:39;;;;;;;21.15;9.78;;;;;;;4.59;66.92;98998.34;1714037;82;21370;-62
2021/12/03 06:31:07;;;;;;;13.65;8.93;;;;;;;4.58;66.76;99009.70;1731282;82;21131;-61
2021/12/03 06:33:34;;;;;;;15.72;9.25;;;;;;;4.56;66.55;99010.30;1735094;81;22161;-63
2021/12/03 06:36:00;;;;;;;15.50;9.15;;;;;;;4.53;66.43;99014.92;1705439;82;21032;-63
2021/12/03 06:38:27;;;;;;;15.30;8.43;;;;;;;4.49;66.51;99011.72;1706530;82;21142;-61
2021/12/03 06:40:55;;;;;;;17.37;10.28;;;;;;;4.53;66.39;99020.13;1688636;83;21883;-62
2021/12/03 06:43:21;;;;;;;15.58;8.13;;;;;;;4.62;66.25;99011.59;1707632;82;21092;-61
2021/12/03 06:45:48;;;;;;;17.10;9.58;;;;;;;4.74;66.36;99012.41;1737993;82;21048;-61
2021/12/03 06:48:14;;;;;;;16.90;10.95;;;;;;;4.85;66.07;99041.08;1718044;82;21109;-62
2021/12/03 06:50:42;;;;;;;19.77;9.68;;;;;;;4.81;65.76;99057.92;1720615;81;21635;-62
2021/12/03 06:53:12;;;;;;;18.50;11.15;;;;;;;4.70;65.75;99092.60;1699968;82;21067;-66
2021/12/03 06:55:48;;;;;;;15.83;10.58;;;;;;;4.56;66.00;99083.23;1696718;83;21070;-63
2021/12/03 06:58:15;;;;;;;17.02;11.28;;;;;;;4.45;66.45;99073.64;1697239;82;21628;-63
2021/12/03 07:00:43;;;;;;;16.25;10.58;;;;;;;4.46;66.72;99073.16;1696117;82;21058;-63
2021/12/03 07:03:10;;;;;;;14.85;9.80;;;;;;;4.50;66.67;99070.67;1704228;81;21126;-63
2021/12/03 07:05:36;;;;;;;17.23;10.32;;;;;;;4.58;66.45;99071.40;1716406;82;21074;-63
2021/12/03 07:08:03;;;;;;;19.82;10.58;;;;;;;4.66;66.30;99062.53;1721021;81;21519;-64
2021/12/03 07:10:30;;;;;;;17.42;11.12;;;;;;;4.74;66.26;99078.41;1720397;81;21109;-64
2021/12/03 07:12:58;;;;;;;17.02;10.88;;;;;;;4.78;66.26;99073.78;1720700;81;21592;-64
2021/12/03 07:15:24;;;;;;;16.25;10.68;;;;;;;4.80;66.07;99083.61;1719277;82;21137;-64
2021/12/03 07:17:51;;;;;;;14.38;9.93;;;;;;;4.82;65.94;99083.02;1720089;82;21568;-64
2021/12/03 07:20:20;;;;;;;20.23;10.30;;;;;;;4.83;65.77;99075.08;1716446;81;21090;-63
2021/12/03 07:22:46;;;;;;;14.93;9.53;;;;;;;4.82;65.72;99061.71;1697717;83;21160;-63
2021/12/03 07:25:13;;;;;;;13.72;9.88;;;;;;;4.83;65.60;99059.92;1716780;81;21050;-61
2021/12/03 07:27:39;;;;;;;16.27;11.08;;;;;;;4.81;65.59;99063.95;1716831;82;21616;-61
2021/12/03 07:30:07;;;;;;;14.05;9.30;;;;;;;4.80;65.65;99060.16;1716511;81;21124;-61
2021/12/03 07:32:35;;;;;;;17.80;10.55;;;;;;;4.85;65.57;99068.45;1716564;81;21069;-61
2021/12/03 07:35:01;;;;;;;18.55;12.65;;;;;;;4.95;65.35;99072.00;1717646;81;21027;-61
2021/12/03 07:37:27;;;;;;;15.53;10.72;;;;;;;5.06;65.35;99067.72;1715467;81;21067;-61
2021/12/03 07:39:54;;;;;;;16.70;10.95;;;;;;;5.14;65.19;99062.25;1717172;81;21588;-64
2021/12/03 07:42:20;;;;;;;19.92;9.95;;;;;;;5.18;65.14;99055.05;1720171;81;22397;-62
2021/12/03 07:44:47;;;;;;;16.87;11.18;;;;;;;5.24;65.03;99056.33;1694601;83;21150;-61
2021/12/03 07:47:13;;;;;;;17.57;10.58;;;;;;;5.24;64.84;99062.36;1720665;81;22440;-67
2021/12/03 07:49:41;;;;;;;17.15;10.43;;;;;;;5.25;64.81;99066.64;1715408;81;21673;-60
2021/12/03 07:52:11;;;;;;;17.82;11.30;;;;;;;5.25;64.68;99067.12;1715799;81;21078;-61
2021/12/03 07:54:37;;;;;;;16.57;10.35;;;;;;;5.24;64.58;99074.59;1724926;81;21668;-60
2021/12/03 07:57:05;;;;;;;15.68;10.15;;;;;;;5.22;64.58;99081.22;1729298;81;21056;-60
2021/12/03 07:59:31;;;;;;;17.62;10.15;;;;;;;5.20;64.61;99102.20;1728494;81;21109;-60
2021/12/03 08:01:57;;;;;;;15.85;10.00;;;;;;;5.17;64.55;99102.92;1706507;82;21147;-61
2021/12/03 08:04:24;;;;;;;17.35;10.68;;;;;;;5.14;64.80;99096.64;1719123;81;21144;-61
2021/12/03 08:06:53;;;;;;;15.68;10.43;;;;;;;5.16;64.64;99099.50;1716402;82;22600;-62
2021/12/03 08:09:21;;;;;;;15.18;9.23;;;;;;;5.26;64.68;99095.70;1720510;82;21049;-62
2021/12/03 08:11:47;;;;;;;17.00;11.08;;;;;;;5.42;64.72;99094.48;1716926;81;21097;-61
2021/12/03 08:14:13;;;;;;;20.27;9.85;;;;;;;5.58;64.59;99097.51;1719182;82;21086;-63
2021/12/03 08:16:40;;;;;;;16.23;9.98;;;;;;;5.66;64.21;99099.03;1697290;83;21092;-62
2021/12/03 08:19:06;;;;;;;15.40;8.68;;;;;;;5.68;63.84;99103.67;1711259;82;21117;-62
2021/12/03 08:21:33;;;;;;;15.90;8.88;;;;;;;5.68;63.75;99100.22;1699326;82;21039;-62
2021/12/03 08:24:00;;;;;;;16.07;9.20;;;;;;;5.69;63.76;99105.31;1715237;81;21049;-62
2021/12/03 08:26:27;;;;;;;17.55;10.25;;;;;;;5.72;63.55;99095.12;1722396;82;21125;-68
2021/12/03 08:28:54;;;;;;;16.32;11.35;;;;;;;5.74;63.50;99090.11;1692843;82;21524;-63
2021/12/03 08:31:20;;;;;;;15.32;9.90;;;;;;;5.77;63.46;99099.49;1718683;82;21751;-62
2021/12/03 08:33:48;;;;;;;17.30;8.90;;;;;;;5.77;63.25;99098.19;1712828;82;21516;-69
2021/12/03 08:36:15;;;;;;;14.58;9.03;;;;;;;5.76;63.33;99083.47;1718482;82;21762;-70
2021/12/03 08:38:44;;;;;;;16.37;9.13;;;;;;;5.76;63.23;99073.84;1722116;82;21580;-69
2021/12/03 08:41:14;;;;;;;15.98;8.80;;;;;;;5.79;63.32;99066.74;1726556;81;21612;-69
2021/12/03 08:43:39;;;;;;;14.20;7.70;;;;;;;5.92;63.30;99060.88;1716361;82;21105;-68
2021/12/03 08:46:13;;;;;;;15.90;8.60;;;;;;;6.05;63.23;99055.03;1695689;83;21070;-70
2021/12/03 08:48:38;;;;;;;15.20;9.03;;;;;;;6.20;63.04;99070.37;1719475;81;21528;-62
2021/12/03 08:54:48;;;;;;;16.52;8.23;;;;;;;6.32;62.72;99079.34;1720918;82;21611;-60
2021/12/03 08:56:04;;;;;;;16.75;7.42;;;;;;;6.35;62.63;99079.54;1720377;81;21074;-68
2021/12/03 08:58:31;;;;;;;12.80;7.97;;;;;;;6.33;62.15;99075.75;1700304;83;21099;-68
2021/12/03 09:00:57;;;;;;;12.73;7.45;;;;;;;6.29;62.12;99071.75;1729235;81;21089;-59
2021/12/03 09:03:24;;;;;;;12.58;7.92;;;;;;;6.26;62.09;99073.79;1718559;81;21144;-57
2021/12/03 09:05:51;;;;;;;14.07;8.05;;;;;;;6.18;62.07;99065.27;1699285;82;21644;-64
2021/12/03 09:08:18;;;;;;;13.85;7.75;;;;;;;6.09;62.17;99066.86;1727455;81;22316;-60
2021/12/03 09:10:44;;;;;;;13.55;6.85;;;;;;;6.02;62.36;99068.79;1723934;82;21085;-58
2021/12/03 09:13:14;;;;;;;12.85;7.92;;;;;;;5.96;62.52;99063.60;1707102;82;21528;-59
2021/12/03 09:15:45;;;;;;;15.65;8.30;;;;;;;5.91;62.58;99057.90;1703681;82;21100;-61
2021/12/03 09:18:19;;;;;;;13.13;6.95;;;;;;;5.86;62.78;99069.20;1720345;82;21105;-61
2021/12/03 09:24:08;;;;;;;13.28;7.20;;;;;;;5.96;62.83;99066.22;1724263;81;21314;-61
2021/12/03 09:25:53;;;;;;;12.45;7.55;;;;;;;6.01;62.75;99072.38;1694468;82;21529;-60
2021/12/03 09:28:15;;;;;;;11.73;7.40;;;;;;;6.01;62.77;99079.72;1719767;82;21121;-59
2021/12/03 09:30:43;;;;;;;12.63;7.00;;;;;;;5.99;62.88;99080.33;1727241;82;21544;-60
2021/12/03 09:33:13;;;;;;;13.93;8.08;;;;;;;5.99;62.84;99085.55;1728072;81;21163;-59
2021/12/03 09:35:42;;;;;;;15.90;8.15;;;;;;;6.00;62.89;99096.36;1721573;82;21125;-61
2021/12/03 09:38:06;;;;;;;12.33;7.50;;;;;;;6.01;62.88;99105.83;1722075;82;21117;-60
2021/12/03 09:40:35;;;;;;;14.98;7.95;;;;;;;5.99;62.76;99106.44;1742021;81;21055;-59
2021/12/03 09:43:02;;;;;;;13.58;7.67;;;;;;;5.95;62.86;99106.29;1725612;81;21093;-59
2021/12/03 09:45:29;;;;;;;13.30;7.92;;;;;;;5.92;63.02;99112.61;1724627;82;21141;-60
2021/12/03 09:47:57;;;;;;;12.65;7.58;;;;;;;5.90;62.95;99117.58;1721882;82;21125;-60
2021/12/03 09:50:23;;;;;;;15.50;7.37;;;;;;;5.84;63.02;99108.48;1723885;81;21106;-60
2021/12/03 09:55:36;;;;;;;13.00;7.45;;;;;;;5.93;62.85;99110.36;1710843;82;21143;-59
2021/12/03 10:01:02;;;;;;;13.65;8.45;;;;;;;6.01;62.78;99095.39;1711551;82;21151;-59
2021/12/03 10:03:38;;;;;;;16.32;8.05;;;;;;;5.93;62.81;99075.11;1706426;82;21083;-62
2021/12/03 10:14:43;;;;;;;14.78;9.13;;;;;;;5.84;63.19;99059.36;1710194;82;21644;-61
2021/12/03 10:31:00;;;;;;;17.87;12.53;;;;;;;5.79;63.82;99071.48;1710839;82;21077;-62
2021/12/03 10:41:32;;;;;;;25.52;15.32;;;;;;;6.14;63.10;99097.84;1728519;82;21056;-62
2021/12/03 10:44:06;;;;;;;;;;;;;;;6.18;62.70;99116.20;1725868;81;21086;-61
2021/12/03 10:46:50;;;;;;;25.90;16.67;;;;;;;6.18;62.70;99118.81;1725969;81;20302;-59
2021/12/03 11:05:43;;;;;;;12.55;7.47;;;;;;;4.58;66.30;99145.65;1731752;81;21719;-60
2021/12/03 11:49:11;;;;;;;7.17;3.72;;;;;;;4.08;67.55;99208.31;1638162;85;21159;-60
2021/12/03 11:59:39;;;;;;;7.78;4.12;;;;;;;4.10;67.88;99262.39;1726923;81;21038;-61
2021/12/03 12:19:01;;;;;;;6.40;2.83;;;;;;;3.97;67.48;99285.02;1698240;83;21053;-59
2021/12/03 12:41:08;;;;;;;5.75;2.60;;;;;;;3.93;67.77;99330.44;1728858;80;23289;-62
2021/12/03 13:03:08;;;;;;;5.70;2.55;;;;;;;3.95;66.70;99383.21;1711541;82;21091;-64
2021/12/03 13:24:12;;;;;;;6.45;2.75;;;;;;;3.90;66.12;99407.80;1741335;80;21559;-66
2021/12/03 14:09:37;;;;;;;7.58;3.55;;;;;;;3.59;67.77;99540.86;1696941;83;21356;-65
2021/12/03 14:57:09;;;;;;;7.12;4.30;;;;;;;3.04;69.10;99613.58;1709857;82;21113;-66
2021/12/03 14:59:38;;;;;;;7.37;4.05;;;;;;;3.06;69.07;99603.09;1706028;83;21038;-67
2021/12/03 15:07:35;;;;;;;9.13;4.55;;;;;;;3.15;69.31;99609.05;1720611;81;21069;-66
2021/12/03 15:10:04;;;;;;;8.30;3.72;;;;;;;3.13;69.32;99619.53;1722731;81;21060;-67
2021/12/03 15:25:14;;;;;;;10.00;5.00;;;;;;;2.92;69.90;99619.53;1682399;82;21050;-65
2021/12/03 15:35:57;;;;;;;10.30;5.92;;;;;;;2.95;69.89;99651.84;1711581;82;21172;-66
2021/12/03 15:52:04;;;;;;;9.25;6.22;;;;;;;2.82;70.16;99662.59;1705988;83;21101;-66
2021/12/03 16:03:38;;;;;;;11.97;7.60;;;;;;;2.90;69.75;99691.56;1868303;75;22501;-62
2021/12/03 16:08:35;;;;;;;8.98;5.53;;;;;;;2.69;69.92;99707.49;1814213;77;21135;-65
2021/12/03 16:11:11;;;;;;;10.78;5.65;;;;;;;2.68;70.14;99712.30;1798996;78;21053;-65
2021/12/03 16:19:13;;;;;;;9.45;5.25;;;;;;;2.86;70.03;99695.25;1753934;79;21011;-67
2021/12/03 16:46:03;;;;;;;9.80;6.00;;;;;;;2.83;69.62;99765.61;1802091;77;21692;-65
2021/12/03 16:51:13;;;;;;;10.28;5.60;;;;;;;2.75;69.67;99776.44;1802070;77;21039;-65
2021/12/03 16:53:34;;;;;;;9.78;6.08;;;;;;;2.69;69.47;99771.14;1804478;77;21112;-65
2021/12/03 16:56:09;;;;;;;9.73;5.72;;;;;;;2.63;69.56;99779.27;1797219;78;21549;-65
2021/12/03 16:58:34;;;;;;;10.05;5.78;;;;;;;2.62;69.35;99786.67;1762522;80;21042;-65
2021/12/03 17:01:12;;;;;;;9.05;4.87;;;;;;;2.74;69.36;99799.43;1780581;79;21080;-64
2021/12/03 17:14:16;;;;;;;10.70;6.67;;;;;;;2.75;68.90;99795.92;1793311;78;21034;-66
2021/12/03 17:48:56;;;;;;;16.25;8.73;;;;;;;2.71;67.89;99825.61;1776444;79;21059;-62
2021/12/03 17:56:46;;;;;;;20.30;12.15;;;;;;;2.66;67.91;99843.22;1799498;78;21085;-63
2021/12/03 17:59:18;;;;;;;21.45;12.85;;;;;;;2.64;68.07;99826.42;1797278;78;21176;-65
2021/12/03 18:01:54;;;;;;;18.27;10.23;;;;;;;2.62;68.18;99833.91;1763810;78;21184;-63
2021/12/03 18:04:38;;;;;;;15.35;9.58;;;;;;;2.56;68.15;99841.12;1796449;78;21048;-63
2021/12/03 18:55:14;;;;;;;12.73;7.22;;;;;;;2.03;69.36;99898.92;1812630;77;21097;-63
2021/12/03 18:57:43;;;;;;;15.88;7.80;;;;;;;2.03;69.45;99917.09;1785541;78;21521;-62
2021/12/03 19:00:10;;;;;;;11.18;7.08;;;;;;;2.03;69.37;99915.80;1786845;79;21092;-62
2021/12/03 19:02:39;;;;;;;11.38;6.78;;;;;;;2.02;69.41;99930.97;1771902;80;21545;-62
2021/12/03 19:10:26;;;;;;;11.80;7.37;;;;;;;2.25;68.87;99954.05;1805185;77;21093;-62
2021/12/03 19:12:58;;;;;;;11.70;7.50;;;;;;;2.27;68.81;99949.17;1778107;77;21097;-62
2021/12/03 19:15:21;;;;;;;11.38;6.95;;;;;;;2.20;68.82;99951.25;1773573;78;21074;-63
2021/12/03 19:17:48;;;;;;;12.47;7.58;;;;;;;2.15;68.94;99960.17;1783285;78;21038;-61
2021/12/03 19:20:21;;;;;;;11.73;7.05;;;;;;;2.12;68.95;99956.00;1782547;78;21108;-65